sensor_id;sensor_type;location;lat;lon;timestamp;pressure;altitude;pressure_sealevel;temperature;humidity
78016;BME280;67223;51.102;5.882;2023-02-26T00:01:19;101593.34;;;0.72;68.72
78016;BME280;67223;51.102;5.882;2023-02-26T00:03:49;101595.47;;;0.60;69.23
78016;BME280;67223;51.102;5.882;2023-02-26T00:06:15;101602.56;;;0.56;69.58
78016;BME280;67223;51.102;5.882;2023-02-26T00:08:40;101600.09;;;0.50;69.90
78016;BME280;67223;51.102;5.882;2023-02-26T00:11:10;101604.28;;;0.57;69.73
78016;BME280;67223;51.102;5.882;2023-02-26T00:13:37;101606.91;;;0.59;70.45
78016;BME280;67223;51.102;5.882;2023-02-26T00:16:09;101607.06;;;0.53;70.04
78016;BME280;67223;51.102;5.882;2023-02-26T00:18:36;101603.13;;;0.36;70.87
78016;BME280;67223;51.102;5.882;2023-02-26T00:21:02;101613.97;;;0.55;70.05
78016;BME280;67223;51.102;5.882;2023-02-26T00:23:28;101608.66;;;0.58;70.24
78016;BME280;67223;51.102;5.882;2023-02-26T00:25:53;101612.44;;;0.48;70.53
78016;BME280;67223;51.102;5.882;2023-02-26T00:28:19;101620.50;;;0.40;70.14
78016;BME280;67223;51.102;5.882;2023-02-26T00:30:44;101623.81;;;0.49;70.66
78016;BME280;67223;51.102;5.882;2023-02-26T00:33:10;101629.09;;;0.47;71.43
78016;BME280;67223;51.102;5.882;2023-02-26T00:35:36;101636.16;;;0.45;70.50
78016;BME280;67223;51.102;5.882;2023-02-26T00:38:02;101637.13;;;0.42;70.85
78016;BME280;67223;51.102;5.882;2023-02-26T00:40:35;101636.41;;;0.36;71.56
78016;BME280;67223;51.102;5.882;2023-02-26T00:43:04;101641.63;;;0.37;71.54
78016;BME280;67223;51.102;5.882;2023-02-26T00:45:31;101643.19;;;0.45;71.14
78016;BME280;67223;51.102;5.882;2023-02-26T00:48:25;101639.13;;;0.33;71.71
78016;BME280;67223;51.102;5.882;2023-02-26T00:51:30;101642.78;;;0.27;71.87
78016;BME280;67223;51.102;5.882;2023-02-26T00:56:39;101643.47;;;0.34;70.85
78016;BME280;67223;51.102;5.882;2023-02-26T00:59:04;101644.63;;;0.24;71.71
78016;BME280;67223;51.102;5.882;2023-02-26T01:01:30;101647.91;;;0.32;71.87
78016;BME280;67223;51.102;5.882;2023-02-26T01:03:56;101650.69;;;0.26;71.81
78016;BME280;67223;51.102;5.882;2023-02-26T01:06:25;101645.50;;;0.24;71.79
78016;BME280;67223;51.102;5.882;2023-02-26T01:09:07;101659.56;;;0.20;71.99
78016;BME280;67223;51.102;5.882;2023-02-26T01:11:35;101660.22;;;0.30;72.31
78016;BME280;67223;51.102;5.882;2023-02-26T01:14:02;101656.50;;;0.38;72.27
78016;BME280;67223;51.102;5.882;2023-02-26T01:16:33;101651.81;;;0.16;72.07
78016;BME280;67223;51.102;5.882;2023-02-26T01:20:07;101653.03;;;0.36;72.16
78016;BME280;67223;51.102;5.882;2023-02-26T01:22:12;101652.72;;;0.49;72.41
78016;BME280;67223;51.102;5.882;2023-02-26T01:24:40;101649.94;;;0.55;72.05
78016;BME280;67223;51.102;5.882;2023-02-26T01:27:06;101652.50;;;0.56;71.71
78016;BME280;67223;51.102;5.882;2023-02-26T01:29:31;101643.22;;;0.43;71.76
78016;BME280;67223;51.102;5.882;2023-02-26T01:32:21;101645.00;;;0.42;72.32
78016;BME280;67223;51.102;5.882;2023-02-26T01:43:23;101653.72;;;0.45;72.72
78016;BME280;67223;51.102;5.882;2023-02-26T01:46:05;101657.91;;;0.50;72.40
78016;BME280;67223;51.102;5.882;2023-02-26T01:48:47;101664.31;;;0.40;72.91
78016;BME280;67223;51.102;5.882;2023-02-26T01:51:14;101661.69;;;0.40;73.44
78016;BME280;67223;51.102;5.882;2023-02-26T01:53:39;101666.66;;;0.51;73.67
78016;BME280;67223;51.102;5.882;2023-02-26T01:56:12;101667.75;;;0.43;73.29
78016;BME280;67223;51.102;5.882;2023-02-26T01:58:39;101675.56;;;0.45;72.42
78016;BME280;67223;51.102;5.882;2023-02-26T02:01:06;101672.59;;;0.59;72.43
78016;BME280;67223;51.102;5.882;2023-02-26T02:03:36;101683.09;;;0.59;72.81
78016;BME280;67223;51.102;5.882;2023-02-26T02:06:08;101686.59;;;0.59;71.89
78016;BME280;67223;51.102;5.882;2023-02-26T02:08:36;101673.28;;;0.65;72.61
78016;BME280;67223;51.102;5.882;2023-02-26T02:11:03;101678.63;;;0.62;72.44
78016;BME280;67223;51.102;5.882;2023-02-26T02:28:24;101690.19;;;0.55;71.77
78016;BME280;67223;51.102;5.882;2023-02-26T02:34:12;101693.03;;;0.48;71.36
78016;BME280;67223;51.102;5.882;2023-02-26T02:36:51;101699.44;;;0.37;71.41
78016;BME280;67223;51.102;5.882;2023-02-26T02:39:23;101695.09;;;0.35;71.54
78016;BME280;67223;51.102;5.882;2023-02-26T02:41:54;101696.94;;;0.31;71.63
78016;BME280;67223;51.102;5.882;2023-02-26T02:44:24;101695.28;;;0.29;71.66
78016;BME280;67223;51.102;5.882;2023-02-26T02:46:53;101701.59;;;0.20;71.90
78016;BME280;67223;51.102;5.882;2023-02-26T02:49:23;101698.94;;;0.22;72.03
78016;BME280;67223;51.102;5.882;2023-02-26T02:51:54;101707.81;;;0.18;72.34
78016;BME280;67223;51.102;5.882;2023-02-26T02:54:27;101714.78;;;0.19;71.56
78016;BME280;67223;51.102;5.882;2023-02-26T02:57:16;101716.81;;;0.08;72.55
78016;BME280;67223;51.102;5.882;2023-02-26T02:59:49;101721.91;;;0.14;72.40
78016;BME280;67223;51.102;5.882;2023-02-26T03:04:50;101727.59;;;-0.05;72.61
78016;BME280;67223;51.102;5.882;2023-02-26T03:07:16;101725.88;;;-0.06;72.50
78016;BME280;67223;51.102;5.882;2023-02-26T03:09:42;101734.94;;;-0.19;73.26
78016;BME280;67223;51.102;5.882;2023-02-26T03:12:07;101734.88;;;-0.16;73.70
78016;BME280;67223;51.102;5.882;2023-02-26T03:14:33;101732.28;;;-0.17;73.59
78016;BME280;67223;51.102;5.882;2023-02-26T03:19:48;101749.75;;;-0.16;73.88
78016;BME280;67223;51.102;5.882;2023-02-26T03:22:34;101749.22;;;-0.30;74.05
78016;BME280;67223;51.102;5.882;2023-02-26T03:25:17;101749.09;;;-0.26;74.06
78016;BME280;67223;51.102;5.882;2023-02-26T03:30:18;101759.41;;;-0.17;74.61
78016;BME280;67223;51.102;5.882;2023-02-26T03:35:46;101778.66;;;-0.18;74.14
78016;BME280;67223;51.102;5.882;2023-02-26T03:38:17;101772.38;;;-0.11;74.18
78016;BME280;67223;51.102;5.882;2023-02-26T03:40:49;101766.56;;;-0.25;73.95
78016;BME280;67223;51.102;5.882;2023-02-26T03:43:23;101773.59;;;-0.25;74.74
78016;BME280;67223;51.102;5.882;2023-02-26T03:45:53;101781.47;;;-0.25;74.82
78016;BME280;67223;51.102;5.882;2023-02-26T03:48:24;101782.41;;;-0.29;75.60
78016;BME280;67223;51.102;5.882;2023-02-26T03:50:54;101775.47;;;-0.32;74.89
78016;BME280;67223;51.102;5.882;2023-02-26T03:53:26;101782.47;;;-0.31;75.58
78016;BME280;67223;51.102;5.882;2023-02-26T03:56:01;101790.38;;;-0.34;75.48
78016;BME280;67223;51.102;5.882;2023-02-26T03:58:28;101793.88;;;-0.33;75.11
78016;BME280;67223;51.102;5.882;2023-02-26T04:01:00;101792.34;;;-0.44;75.77
78016;BME280;67223;51.102;5.882;2023-02-26T04:06:09;101800.28;;;-0.47;76.59
78016;BME280;67223;51.102;5.882;2023-02-26T04:08:35;101807.41;;;-0.53;76.75
78016;BME280;67223;51.102;5.882;2023-02-26T04:11:07;101809.06;;;-0.49;76.81
78016;BME280;67223;51.102;5.882;2023-02-26T04:13:35;101802.22;;;-0.56;76.81
78016;BME280;67223;51.102;5.882;2023-02-26T04:16:00;101812.66;;;-0.55;76.37
78016;BME280;67223;51.102;5.882;2023-02-26T04:18:26;101807.41;;;-0.53;76.71
78016;BME280;67223;51.102;5.882;2023-02-26T04:20:51;101810.03;;;-0.55;76.43
78016;BME280;67223;51.102;5.882;2023-02-26T04:23:17;101817.22;;;-0.64;76.58
78016;BME280;67223;51.102;5.882;2023-02-26T04:25:44;101816.31;;;-0.62;76.24
78016;BME280;67223;51.102;5.882;2023-02-26T04:28:09;101827.59;;;-0.57;76.38
78016;BME280;67223;51.102;5.882;2023-02-26T04:30:35;101822.47;;;-0.63;76.15
78016;BME280;67223;51.102;5.882;2023-02-26T04:33:00;101826.84;;;-0.63;76.98
78016;BME280;67223;51.102;5.882;2023-02-26T04:35:26;101820.03;;;-0.72;76.88
78016;BME280;67223;51.102;5.882;2023-02-26T04:37:51;101825.16;;;-0.66;77.08
78016;BME280;67223;51.102;5.882;2023-02-26T04:40:16;101825.28;;;-0.73;77.17
78016;BME280;67223;51.102;5.882;2023-02-26T04:42:42;101836.63;;;-0.71;76.61
78016;BME280;67223;51.102;5.882;2023-02-26T04:45:07;101832.25;;;-0.72;77.05
78016;BME280;67223;51.102;5.882;2023-02-26T04:47:33;101831.41;;;-0.74;77.35
78016;BME280;67223;51.102;5.882;2023-02-26T04:49:58;101838.50;;;-0.79;76.27
78016;BME280;67223;51.102;5.882;2023-02-26T04:52:24;101828.75;;;-0.70;75.67
78016;BME280;67223;51.102;5.882;2023-02-26T04:54:49;101844.53;;;-0.74;76.08
78016;BME280;67223;51.102;5.882;2023-02-26T04:57:15;101838.56;;;-0.82;76.94
78016;BME280;67223;51.102;5.882;2023-02-26T04:59:40;101842.88;;;-0.78;76.00
78016;BME280;67223;51.102;5.882;2023-02-26T05:02:06;101852.53;;;-0.80;76.02
78016;BME280;67223;51.102;5.882;2023-02-26T05:04:32;101855.28;;;-0.88;76.34
78016;BME280;67223;51.102;5.882;2023-02-26T05:06:57;101853.50;;;-0.86;76.77
78016;BME280;67223;51.102;5.882;2023-02-26T05:09:23;101864.09;;;-0.91;76.94
78016;BME280;67223;51.102;5.882;2023-02-26T05:11:48;101862.31;;;-0.90;76.12
78016;BME280;67223;51.102;5.882;2023-02-26T05:14:14;101865.84;;;-0.91;76.10
78016;BME280;67223;51.102;5.882;2023-02-26T05:16:40;101858.69;;;-0.84;75.71
78016;BME280;67223;51.102;5.882;2023-02-26T05:19:06;101865.91;;;-0.96;75.69
78016;BME280;67223;51.102;5.882;2023-02-26T05:21:31;101869.31;;;-0.91;76.11
78016;BME280;67223;51.102;5.882;2023-02-26T05:23:57;101882.53;;;-0.97;76.57
78016;BME280;67223;51.102;5.882;2023-02-26T05:26:22;101871.13;;;-0.94;75.66
78016;BME280;67223;51.102;5.882;2023-02-26T05:28:48;101878.19;;;-0.98;75.80
78016;BME280;67223;51.102;5.882;2023-02-26T05:31:13;101887.78;;;-0.97;75.78
78016;BME280;67223;51.102;5.882;2023-02-26T05:33:39;101882.47;;;-0.94;74.85
78016;BME280;67223;51.102;5.882;2023-02-26T05:36:05;101886.22;;;-1.08;74.87
78016;BME280;67223;51.102;5.882;2023-02-26T05:38:31;101888.84;;;-1.08;75.42
78016;BME280;67223;51.102;5.882;2023-02-26T05:40:57;101892.25;;;-1.03;74.33
78016;BME280;67223;51.102;5.882;2023-02-26T05:43:23;101901.69;;;-0.95;73.60
78016;BME280;67223;51.102;5.882;2023-02-26T05:45:49;101911.38;;;-0.98;73.64
78016;BME280;67223;51.102;5.882;2023-02-26T05:48:15;101895.84;;;-1.09;73.96
78016;BME280;67223;51.102;5.882;2023-02-26T05:50:40;101913.28;;;-1.06;73.22
78016;BME280;67223;51.102;5.882;2023-02-26T05:53:06;101913.13;;;-0.99;73.43
78016;BME280;67223;51.102;5.882;2023-02-26T05:55:31;101912.50;;;-1.11;73.59
78016;BME280;67223;51.102;5.882;2023-02-26T05:57:57;101910.50;;;-0.96;74.40
78016;BME280;67223;51.102;5.882;2023-02-26T06:00:22;101918.56;;;-1.09;74.51
78016;BME280;67223;51.102;5.882;2023-02-26T06:02:48;101923.78;;;-1.08;73.74
78016;BME280;67223;51.102;5.882;2023-02-26T06:05:13;101922.03;;;-1.09;73.47
78016;BME280;67223;51.102;5.882;2023-02-26T06:07:39;101919.50;;;-1.13;73.79
78016;BME280;67223;51.102;5.882;2023-02-26T06:10:05;101929.03;;;-1.08;73.62
78016;BME280;67223;51.102;5.882;2023-02-26T06:12:33;101933.50;;;-1.14;74.11
78016;BME280;67223;51.102;5.882;2023-02-26T06:14:58;101936.00;;;-1.07;73.92
78016;BME280;67223;51.102;5.882;2023-02-26T06:17:24;101935.19;;;-1.10;73.33
78016;BME280;67223;51.102;5.882;2023-02-26T06:19:49;101937.88;;;-1.15;73.15
78016;BME280;67223;51.102;5.882;2023-02-26T06:22:14;101938.63;;;-1.08;73.19
78016;BME280;67223;51.102;5.882;2023-02-26T06:24:40;101941.31;;;-1.11;74.25
78016;BME280;67223;51.102;5.882;2023-02-26T06:27:05;101943.97;;;-1.14;73.25
78016;BME280;67223;51.102;5.882;2023-02-26T06:29:31;101950.06;;;-1.11;74.02
78016;BME280;67223;51.102;5.882;2023-02-26T06:31:56;101954.50;;;-1.17;73.57
78016;BME280;67223;51.102;5.882;2023-02-26T06:34:22;101962.38;;;-1.16;73.18
78016;BME280;67223;51.102;5.882;2023-02-26T06:36:48;101964.13;;;-1.18;73.36
78016;BME280;67223;51.102;5.882;2023-02-26T06:39:13;101966.69;;;-1.13;72.90
78016;BME280;67223;51.102;5.882;2023-02-26T06:41:39;101970.31;;;-1.22;74.43
78016;BME280;67223;51.102;5.882;2023-02-26T06:44:04;101972.06;;;-1.22;73.84
78016;BME280;67223;51.102;5.882;2023-02-26T06:46:30;101979.91;;;-1.21;74.28
78016;BME280;67223;51.102;5.882;2023-02-26T06:48:55;101985.97;;;-1.17;72.79
78016;BME280;67223;51.102;5.882;2023-02-26T06:51:21;101993.91;;;-1.23;73.14
78016;BME280;67223;51.102;5.882;2023-02-26T06:53:46;101995.56;;;-1.15;73.23
78016;BME280;67223;51.102;5.882;2023-02-26T06:56:11;101993.03;;;-1.22;73.56
78016;BME280;67223;51.102;5.882;2023-02-26T06:58:37;102001.63;;;-1.14;73.25
78016;BME280;67223;51.102;5.882;2023-02-26T07:01:03;102005.03;;;-1.08;73.99
78016;BME280;67223;51.102;5.882;2023-02-26T07:03:28;102012.97;;;-1.14;73.77
78016;BME280;67223;51.102;5.882;2023-02-26T07:05:54;102013.84;;;-1.12;73.74
78016;BME280;67223;51.102;5.882;2023-02-26T07:08:19;102015.53;;;-1.08;72.66
78016;BME280;67223;51.102;5.882;2023-02-26T07:10:45;102028.63;;;-1.06;73.38
78016;BME280;67223;51.102;5.882;2023-02-26T07:13:14;102026.88;;;-1.06;72.93
78016;BME280;67223;51.102;5.882;2023-02-26T07:15:39;102024.97;;;-0.98;73.43
78016;BME280;67223;51.102;5.882;2023-02-26T07:18:04;102030.22;;;-0.96;73.04
78016;BME280;67223;51.102;5.882;2023-02-26T07:20:30;102025.78;;;-0.93;73.89
78016;BME280;67223;51.102;5.882;2023-02-26T07:22:55;102031.94;;;-0.95;73.00
78016;BME280;67223;51.102;5.882;2023-02-26T07:25:21;102037.22;;;-0.97;72.81
78016;BME280;67223;51.102;5.882;2023-02-26T07:27:47;102046.78;;;-0.94;73.77
78016;BME280;67223;51.102;5.882;2023-02-26T07:30:13;102048.53;;;-0.95;73.57
78016;BME280;67223;51.102;5.882;2023-02-26T07:32:38;102056.34;;;-0.92;72.78
78016;BME280;67223;51.102;5.882;2023-02-26T07:35:04;102054.41;;;-0.77;73.03
78016;BME280;67223;51.102;5.882;2023-02-26T07:37:30;102062.59;;;-0.44;72.36
78016;BME280;67223;51.102;5.882;2023-02-26T07:39:56;102061.22;;;-0.67;72.83
78016;BME280;67223;51.102;5.882;2023-02-26T07:42:21;102067.34;;;-0.65;71.95
78016;BME280;67223;51.102;5.882;2023-02-26T07:44:47;102069.84;;;-0.59;71.21
78016;BME280;67223;51.102;5.882;2023-02-26T07:47:12;102073.25;;;-0.54;71.19
78016;BME280;67223;51.102;5.882;2023-02-26T07:49:38;102080.69;;;-0.28;70.97
78016;BME280;67223;51.102;5.882;2023-02-26T07:52:04;102080.88;;;-0.37;71.20
78016;BME280;67223;51.102;5.882;2023-02-26T07:54:31;102090.94;;;-0.13;70.78
78016;BME280;67223;51.102;5.882;2023-02-26T07:56:57;102090.47;;;0.14;70.15
78016;BME280;67223;51.102;5.882;2023-02-26T07:59:22;102102.16;;;0.44;69.02
78016;BME280;67223;51.102;5.882;2023-02-26T08:01:47;102097.53;;;0.55;67.78
78016;BME280;67223;51.102;5.882;2023-02-26T08:04:13;102104.22;;;0.71;67.26
78016;BME280;67223;51.102;5.882;2023-02-26T08:06:38;102102.50;;;1.10;66.68
78016;BME280;67223;51.102;5.882;2023-02-26T08:09:04;102112.56;;;1.30;66.24
78016;BME280;67223;51.102;5.882;2023-02-26T08:11:30;102110.97;;;1.61;64.22
78016;BME280;67223;51.102;5.882;2023-02-26T08:13:57;102126.03;;;1.90;62.67
78016;BME280;67223;51.102;5.882;2023-02-26T08:16:23;102119.09;;;1.88;63.00
78016;BME280;67223;51.102;5.882;2023-02-26T08:18:48;102125.09;;;2.28;61.70
78016;BME280;67223;51.102;5.882;2023-02-26T08:21:14;102122.97;;;2.41;60.22
78016;BME280;67223;51.102;5.882;2023-02-26T08:23:39;102132.97;;;2.60;59.61
78016;BME280;67223;51.102;5.882;2023-02-26T08:26:07;102135.22;;;2.74;59.12
78016;BME280;67223;51.102;5.882;2023-02-26T08:28:33;102133.88;;;3.20;58.55
78016;BME280;67223;51.102;5.882;2023-02-26T08:30:59;102138.19;;;3.52;56.60
78016;BME280;67223;51.102;5.882;2023-02-26T08:33:25;102134.56;;;3.54;55.13
78016;BME280;67223;51.102;5.882;2023-02-26T08:35:51;102146.28;;;4.00;54.23
78016;BME280;67223;51.102;5.882;2023-02-26T08:38:18;102144.63;;;4.48;53.91
78016;BME280;67223;51.102;5.882;2023-02-26T08:40:43;102146.41;;;4.72;53.14
78016;BME280;67223;51.102;5.882;2023-02-26T08:43:09;102152.22;;;4.82;52.37
78016;BME280;67223;51.102;5.882;2023-02-26T08:45:36;102149.09;;;4.94;51.63
78016;BME280;67223;51.102;5.882;2023-02-26T08:48:01;102155.78;;;5.04;52.33
78016;BME280;67223;51.102;5.882;2023-02-26T08:50:27;102148.28;;;5.39;50.93
78016;BME280;67223;51.102;5.882;2023-02-26T08:52:53;102164.34;;;5.57;49.85
78016;BME280;67223;51.102;5.882;2023-02-26T08:55:18;102162.34;;;5.41;49.86
78016;BME280;67223;51.102;5.882;2023-02-26T08:57:44;102168.50;;;5.63;49.91
78016;BME280;67223;51.102;5.882;2023-02-26T09:00:10;102168.03;;;5.75;49.04
78016;BME280;67223;51.102;5.882;2023-02-26T09:02:36;102173.75;;;6.30;48.79
78016;BME280;67223;51.102;5.882;2023-02-26T09:05:03;102174.41;;;6.35;48.60
78016;BME280;67223;51.102;5.882;2023-02-26T09:07:28;102184.13;;;6.56;47.28
78016;BME280;67223;51.102;5.882;2023-02-26T09:09:54;102194.81;;;6.93;45.63
78016;BME280;67223;51.102;5.882;2023-02-26T09:12:19;102196.09;;;6.85;46.14
78016;BME280;67223;51.102;5.882;2023-02-26T09:14:45;102192.06;;;6.76;46.31
78016;BME280;67223;51.102;5.882;2023-02-26T09:17:10;102186.88;;;6.73;45.75
78016;BME280;67223;51.102;5.882;2023-02-26T09:19:36;102195.22;;;7.05;44.71
78016;BME280;67223;51.102;5.882;2023-02-26T09:22:01;102204.66;;;7.12;43.93
78016;BME280;67223;51.102;5.882;2023-02-26T09:24:27;102209.31;;;7.63;43.75
78016;BME280;67223;51.102;5.882;2023-02-26T09:26:52;102210.41;;;7.77;43.01
78016;BME280;67223;51.102;5.882;2023-02-26T09:29:18;102220.75;;;7.84;42.14
78016;BME280;67223;51.102;5.882;2023-02-26T09:31:43;102219.97;;;8.17;41.44
78016;BME280;67223;51.102;5.882;2023-02-26T09:34:08;102223.34;;;8.21;41.46
78016;BME280;67223;51.102;5.882;2023-02-26T09:36:34;102232.16;;;8.04;42.21
78016;BME280;67223;51.102;5.882;2023-02-26T09:38:59;102231.09;;;7.90;42.46
78016;BME280;67223;51.102;5.882;2023-02-26T09:41:41;102228.19;;;8.32;42.09
78016;BME280;67223;51.102;5.882;2023-02-26T09:44:22;102234.91;;;8.39;41.07
78016;BME280;67223;51.102;5.882;2023-02-26T09:52:03;102233.44;;;8.50;37.91
78016;BME280;67223;51.102;5.882;2023-02-26T09:54:36;102254.81;;;9.00;36.77
78016;BME280;67223;51.102;5.882;2023-02-26T09:57:05;102246.28;;;8.77;36.71
78016;BME280;67223;51.102;5.882;2023-02-26T09:59:34;102243.22;;;8.67;36.34
78016;BME280;67223;51.102;5.882;2023-02-26T10:02:04;102250.91;;;8.56;36.32
78016;BME280;67223;51.102;5.882;2023-02-26T10:07:52;102253.38;;;8.06;37.62
78016;BME280;67223;51.102;5.882;2023-02-26T10:10:02;102259.44;;;8.62;36.39
78016;BME280;67223;51.102;5.882;2023-02-26T10:12:33;102268.38;;;8.61;37.21
78016;BME280;67223;51.102;5.882;2023-02-26T10:15:10;102265.63;;;9.63;35.83
78016;BME280;67223;51.102;5.882;2023-02-26T10:23:51;102267.88;;;8.53;37.61
78016;BME280;67223;51.102;5.882;2023-02-26T10:26:04;102281.47;;;8.66;36.33
78016;BME280;67223;51.102;5.882;2023-02-26T10:28:38;102282.97;;;9.39;35.05
78016;BME280;67223;51.102;5.882;2023-02-26T10:34:05;102278.88;;;9.32;35.14
78016;BME280;67223;51.102;5.882;2023-02-26T10:36:54;102286.63;;;9.03;35.53
78016;BME280;67223;51.102;5.882;2023-02-26T10:41:59;102279.34;;;8.90;36.16
78016;BME280;67223;51.102;5.882;2023-02-26T10:44:35;102280.28;;;8.72;36.67
78016;BME280;67223;51.102;5.882;2023-02-26T10:52:12;102293.41;;;10.23;33.17
78016;BME280;67223;51.102;5.882;2023-02-26T10:54:45;102289.91;;;9.41;34.26
78016;BME280;67223;51.102;5.882;2023-02-26T10:57:22;102289.53;;;8.64;35.57
78016;BME280;67223;51.102;5.882;2023-02-26T10:59:48;102288.09;;;8.03;36.50
78016;BME280;67223;51.102;5.882;2023-02-26T11:02:39;102295.72;;;8.99;36.34
78016;BME280;67223;51.102;5.882;2023-02-26T11:05:12;102282.50;;;9.64;34.49
78016;BME280;67223;51.102;5.882;2023-02-26T11:07:39;102298.72;;;9.92;33.91
78016;BME280;67223;51.102;5.882;2023-02-26T11:10:14;102300.38;;;10.10;32.45
78016;BME280;67223;51.102;5.882;2023-02-26T11:12:40;102301.81;;;9.19;34.54
78016;BME280;67223;51.102;5.882;2023-02-26T11:15:13;102292.91;;;7.95;35.34
78016;BME280;67223;51.102;5.882;2023-02-26T11:17:39;102300.41;;;7.48;37.09
78016;BME280;67223;51.102;5.882;2023-02-26T11:22:56;102303.19;;;6.85;38.47
78016;BME280;67223;51.102;5.882;2023-02-26T11:25:27;102296.44;;;6.35;40.35
78016;BME280;67223;51.102;5.882;2023-02-26T11:28:01;102298.06;;;6.81;39.37
78016;BME280;67223;51.102;5.882;2023-02-26T11:30:31;102302.16;;;6.88;38.67
78016;BME280;67223;51.102;5.882;2023-02-26T11:33:15;102300.25;;;6.28;39.21
78016;BME280;67223;51.102;5.882;2023-02-26T11:35:41;102302.06;;;6.49;39.39
78016;BME280;67223;51.102;5.882;2023-02-26T11:38:15;102288.59;;;7.73;36.60
78016;BME280;67223;51.102;5.882;2023-02-26T11:40:55;102304.06;;;6.64;36.84
78016;BME280;67223;51.102;5.882;2023-02-26T11:43:23;102300.94;;;7.17;36.71
78016;BME280;67223;51.102;5.882;2023-02-26T11:45:59;102296.50;;;7.94;36.88
78016;BME280;67223;51.102;5.882;2023-02-26T11:48:45;102305.22;;;8.16;35.99
78016;BME280;67223;51.102;5.882;2023-02-26T11:51:18;102300.16;;;8.64;34.32
78016;BME280;67223;51.102;5.882;2023-02-26T11:53:48;102293.25;;;9.29;34.28
78016;BME280;67223;51.102;5.882;2023-02-26T11:56:26;102295.94;;;9.12;35.41
78016;BME280;67223;51.102;5.882;2023-02-26T11:58:54;102296.13;;;7.45;36.66
78016;BME280;67223;51.102;5.882;2023-02-26T12:01:20;102295.81;;;7.71;37.54
78016;BME280;67223;51.102;5.882;2023-02-26T12:03:48;102296.38;;;7.39;37.93
78016;BME280;67223;51.102;5.882;2023-02-26T12:06:21;102300.53;;;8.40;37.53
78016;BME280;67223;51.102;5.882;2023-02-26T12:08:49;102302.19;;;8.59;36.47
78016;BME280;67223;51.102;5.882;2023-02-26T12:14:28;102296.66;;;7.91;37.76
78016;BME280;67223;51.102;5.882;2023-02-26T12:19:56;102305.47;;;8.29;41.01
78016;BME280;67223;51.102;5.882;2023-02-26T12:33:57;102284.00;;;7.96;40.35
78016;BME280;67223;51.102;5.882;2023-02-26T12:42:02;102291.09;;;7.19;36.52
78016;BME280;67223;51.102;5.882;2023-02-26T12:58:51;102297.50;;;6.31;35.92
78016;BME280;67223;51.102;5.882;2023-02-26T13:20:40;102286.38;;;6.43;38.45
78016;BME280;67223;51.102;5.882;2023-02-26T13:23:17;102298.63;;;6.47;39.63
78016;BME280;67223;51.102;5.882;2023-02-26T13:25:53;102294.72;;;6.34;38.63
78016;BME280;67223;51.102;5.882;2023-02-26T13:28:36;102292.31;;;6.49;38.81
78016;BME280;67223;51.102;5.882;2023-02-26T13:31:08;102290.13;;;5.94;37.49
78016;BME280;67223;51.102;5.882;2023-02-26T13:33:36;102285.56;;;5.74;35.89
78016;BME280;67223;51.102;5.882;2023-02-26T13:36:04;102279.09;;;6.04;37.29
78016;BME280;67223;51.102;5.882;2023-02-26T13:38:40;102279.66;;;5.68;35.79
78016;BME280;67223;51.102;5.882;2023-02-26T13:44:14;102282.44;;;5.40;37.18
78016;BME280;67223;51.102;5.882;2023-02-26T13:47:08;102287.06;;;5.58;37.41
78016;BME280;67223;51.102;5.882;2023-02-26T13:52:31;102275.38;;;5.63;40.87
78016;BME280;67223;51.102;5.882;2023-02-26T13:54:57;102283.31;;;5.40;39.80
78016;BME280;67223;51.102;5.882;2023-02-26T14:00:28;102267.66;;;5.81;42.59
78016;BME280;67223;51.102;5.882;2023-02-26T14:03:29;102278.47;;;5.03;41.68
78016;BME280;67223;51.102;5.882;2023-02-26T14:06:21;102280.31;;;5.49;42.63
78016;BME280;67223;51.102;5.882;2023-02-26T14:08:50;102277.09;;;5.64;42.13
78016;BME280;67223;51.102;5.882;2023-02-26T14:11:36;102287.56;;;5.44;40.09
78016;BME280;67223;51.102;5.882;2023-02-26T14:14:10;102285.31;;;5.34;40.38
78016;BME280;67223;51.102;5.882;2023-02-26T14:16:39;102282.97;;;5.01;38.25
78016;BME280;67223;51.102;5.882;2023-02-26T14:21:38;102281.03;;;5.54;41.67
78016;BME280;67223;51.102;5.882;2023-02-26T14:29:52;102277.94;;;5.18;40.37
78016;BME280;67223;51.102;5.882;2023-02-26T14:32:31;102284.22;;;4.91;40.97
78016;BME280;67223;51.102;5.882;2023-02-26T14:35:05;102289.69;;;5.11;40.16
78016;BME280;67223;51.102;5.882;2023-02-26T14:37:35;102295.72;;;4.90;40.79
78016;BME280;67223;51.102;5.882;2023-02-26T14:42:42;102280.88;;;5.11;39.44
78016;BME280;67223;51.102;5.882;2023-02-26T14:45:34;102272.88;;;5.12;40.11
78016;BME280;67223;51.102;5.882;2023-02-26T14:48:03;102278.38;;;5.31;39.31
78016;BME280;67223;51.102;5.882;2023-02-26T14:53:43;102286.69;;;4.96;39.34
78016;BME280;67223;51.102;5.882;2023-02-26T15:07:27;102291.78;;;5.02;39.10
78016;BME280;67223;51.102;5.882;2023-02-26T15:16:17;102297.88;;;5.29;40.44
78016;BME280;67223;51.102;5.882;2023-02-26T15:24:12;102297.28;;;4.96;39.70
78016;BME280;67223;51.102;5.882;2023-02-26T15:26:50;102303.94;;;4.83;39.36
78016;BME280;67223;51.102;5.882;2023-02-26T15:29:16;102305.97;;;4.99;39.44
78016;BME280;67223;51.102;5.882;2023-02-26T15:31:50;102308.19;;;4.87;39.12
78016;BME280;67223;51.102;5.882;2023-02-26T15:34:18;102310.09;;;4.83;38.31
78016;BME280;67223;51.102;5.882;2023-02-26T15:36:47;102309.50;;;4.73;38.33
78016;BME280;67223;51.102;5.882;2023-02-26T15:39:15;102305.78;;;4.79;38.59
78016;BME280;67223;51.102;5.882;2023-02-26T15:41:42;102307.75;;;4.99;39.44
78016;BME280;67223;51.102;5.882;2023-02-26T15:44:12;102308.78;;;4.95;39.27
78016;BME280;67223;51.102;5.882;2023-02-26T15:46:41;102312.41;;;4.92;41.01
78016;BME280;67223;51.102;5.882;2023-02-26T15:49:11;102309.22;;;4.83;41.43
78016;BME280;67223;51.102;5.882;2023-02-26T15:51:38;102312.41;;;4.92;42.19
78016;BME280;67223;51.102;5.882;2023-02-26T15:54:05;102314.44;;;4.84;43.07
78016;BME280;67223;51.102;5.882;2023-02-26T15:56:35;102313.03;;;4.74;42.57
78016;BME280;67223;51.102;5.882;2023-02-26T15:59:12;102312.63;;;4.60;44.33
78016;BME280;67223;51.102;5.882;2023-02-26T16:01:41;102308.91;;;4.65;44.17